Time;durP1;ratioP1;P1;durP2;ratioP2;P2;SDS_P1;SDS_P2;PMS_P1;PMS_P2;Temp;Humidity;BMP_temperature;BMP_pressure;BME280_temperature;BME280_humidity;BME280_pressure;Samples;Min_cycle;Max_cycle;Signal;HPM_P1;HPM_P2
2021/09/11 00:03:34;;;;;;;9.55;4.88;;;;;;;14.25;51.42;95238.31;5089946;28;20044;-78
2021/09/11 00:06:00;;;;;;;9.68;5.57;;;;;;;14.23;51.37;95240.38;5093694;28;20036;-80
2021/09/11 00:08:25;;;;;;;15.02;4.95;;;;;;;14.19;51.44;95244.53;5092925;28;20051;-79
2021/09/11 00:10:50;;;;;;;8.20;5.15;;;;;;;14.13;51.50;95237.63;5091481;22;20065;-80
2021/09/11 00:13:22;;;;;;;13.30;4.75;;;;;;;14.11;51.91;95242.31;5033587;22;20045;-80
2021/09/11 00:15:49;;;;;;;11.33;4.90;;;;;;;14.08;51.65;95237.59;5064599;22;20060;-80
2021/09/11 00:20:48;;;;;;;12.82;5.68;;;;;;;13.97;52.30;95236.66;5048633;22;20120;-79
2021/09/11 00:23:14;;;;;;;14.50;6.13;;;;;;;13.92;52.13;95233.19;5023198;28;20034;-79
2021/09/11 00:25:40;;;;;;;8.00;5.32;;;;;;;13.92;52.44;95241.81;4991485;28;20044;-80
2021/09/11 00:28:05;;;;;;;13.77;4.95;;;;;;;13.86;52.35;95242.00;5006463;28;20055;-80
2021/09/11 00:30:43;;;;;;;8.82;4.75;;;;;;;13.85;52.09;95248.28;4990124;28;20042;-80
2021/09/11 00:33:08;;;;;;;12.63;5.35;;;;;;;13.77;52.38;95244.22;5010583;28;20025;-80
2021/09/11 00:35:34;;;;;;;9.25;5.85;;;;;;;13.73;52.49;95253.59;5007861;28;20037;-80
2021/09/11 00:37:59;;;;;;;13.88;5.78;;;;;;;13.68;52.43;95254.31;4995491;28;20600;-80
2021/09/11 00:40:25;;;;;;;12.25;5.43;;;;;;;13.68;52.37;95249.09;5008328;28;20038;-80
2021/09/11 00:42:50;;;;;;;13.18;5.65;;;;;;;13.67;52.51;95247.50;5025361;28;20045;-79
2021/09/11 00:45:21;;;;;;;8.50;4.85;;;;;;;13.66;52.34;95250.34;5023955;28;20034;-80
2021/09/11 00:47:46;;;;;;;16.58;5.20;;;;;;;13.64;52.44;95250.59;5008595;28;20041;-80
2021/09/11 00:50:12;;;;;;;14.90;6.40;;;;;;;13.58;52.74;95243.72;5023539;28;20025;-80
2021/09/11 00:52:38;;;;;;;11.13;6.15;;;;;;;13.57;52.80;95241.34;5006777;28;20061;-80
2021/09/11 00:55:05;;;;;;;11.52;5.28;;;;;;;13.51;52.96;95238.66;5007184;28;20119;-80
2021/09/11 00:57:31;;;;;;;10.57;5.40;;;;;;;13.45;53.06;95238.81;5023689;28;20037;-80
2021/09/11 00:59:56;;;;;;;9.13;5.63;;;;;;;13.45;53.10;95238.81;5006776;28;20045;-81
2021/09/11 01:02:21;;;;;;;13.82;5.57;;;;;;;13.40;53.48;95246.59;5024369;28;20041;-80
2021/09/11 01:04:47;;;;;;;13.07;5.85;;;;;;;13.37;53.40;95240.00;5075363;22;20045;-80
2021/09/11 01:07:12;;;;;;;13.32;6.00;;;;;;;13.38;52.96;95248.66;5014171;28;20038;-80
2021/09/11 01:09:38;;;;;;;12.82;5.00;;;;;;;13.35;53.70;95246.50;5014087;28;20033;-81
2021/09/11 01:12:09;;;;;;;10.20;5.75;;;;;;;13.32;53.24;95249.56;5014473;28;20038;-80
2021/09/11 01:14:35;;;;;;;8.70;5.47;;;;;;;13.29;53.68;95248.25;4997406;28;20033;-81
2021/09/11 01:17:00;;;;;;;11.73;5.40;;;;;;;13.27;53.54;95246.91;5014944;28;20018;-81
2021/09/11 01:19:25;;;;;;;13.82;5.57;;;;;;;13.28;53.83;95253.69;4996801;28;20026;-80
2021/09/11 01:21:51;;;;;;;20.75;7.20;;;;;;;13.23;54.18;95251.00;5015562;28;20505;-80
2021/09/11 01:24:16;;;;;;;11.40;6.05;;;;;;;13.20;54.13;95247.84;5014408;28;20026;-80
2021/09/11 01:26:41;;;;;;;18.35;6.50;;;;;;;13.21;53.92;95252.03;5015047;28;20632;-80
2021/09/11 01:29:11;;;;;;;12.55;6.22;;;;;;;13.12;54.55;95250.81;5013291;28;20038;-80
2021/09/11 01:31:36;;;;;;;10.05;5.97;;;;;;;13.09;54.80;95250.50;4997098;28;20497;-81
2021/09/11 01:34:02;;;;;;;14.75;6.75;;;;;;;13.04;54.88;95243.38;4995678;28;20512;-81
2021/09/11 01:36:28;;;;;;;12.02;5.78;;;;;;;13.05;54.86;95244.97;5014622;28;20050;-80
2021/09/11 01:38:53;;;;;;;12.52;5.70;;;;;;;13.02;54.81;95255.09;4999325;28;20562;-80
2021/09/11 01:41:19;;;;;;;7.82;5.05;;;;;;;13.03;54.24;95247.03;5016948;28;20475;-80
2021/09/11 01:43:44;;;;;;;9.30;5.30;;;;;;;13.01;54.73;95254.28;5018225;28;20080;-79
2021/09/11 01:46:10;;;;;;;6.88;5.07;;;;;;;13.01;54.84;95251.66;5015657;28;20034;-79
2021/09/11 01:48:35;;;;;;;15.98;5.95;;;;;;;12.98;54.94;95252.13;5015835;28;20026;-79
2021/09/11 01:51:10;;;;;;;13.30;6.70;;;;;;;13.00;54.71;95252.69;5015042;28;20053;-79
2021/09/11 01:53:35;;;;;;;17.40;6.32;;;;;;;12.92;55.05;95245.25;4981195;28;20049;-79
2021/09/11 01:56:01;;;;;;;16.60;6.30;;;;;;;12.92;55.17;95240.84;4996004;28;20441;-81
2021/09/11 01:58:26;;;;;;;16.25;6.97;;;;;;;12.91;54.98;95246.28;4997144;28;20030;-79
2021/09/11 02:00:51;;;;;;;19.58;7.38;;;;;;;12.89;55.47;95250.94;4997282;28;20037;-79
2021/09/11 02:03:17;;;;;;;11.32;6.03;;;;;;;12.81;55.38;95243.50;4997248;28;20061;-80
2021/09/11 02:05:42;;;;;;;17.05;6.32;;;;;;;12.80;55.47;95247.13;5014498;28;20037;-79
2021/09/11 02:08:08;;;;;;;12.57;5.90;;;;;;;12.80;55.70;95242.69;5015017;28;20046;-78
2021/09/11 02:10:34;;;;;;;21.52;6.82;;;;;;;12.73;55.77;95236.84;5019472;28;20201;-78
2021/09/11 02:12:59;;;;;;;25.08;8.40;;;;;;;12.75;55.92;95240.00;5022637;28;20045;-77
2021/09/11 02:15:34;;;;;;;26.40;7.80;;;;;;;12.75;55.57;95240.00;5019461;28;20049;-79
2021/09/11 02:17:59;;;;;;;16.38;7.03;;;;;;;12.71;55.81;95238.13;5014797;28;20100;-80
2021/09/11 02:20:25;;;;;;;20.20;6.57;;;;;;;12.68;56.03;95233.34;5014525;28;20046;-79
2021/09/11 02:22:50;;;;;;;15.90;7.05;;;;;;;12.69;55.85;95240.13;4997544;28;20030;-79
2021/09/11 02:25:16;;;;;;;17.40;8.30;;;;;;;12.66;56.32;95241.41;5014752;28;20124;-80
2021/09/11 02:27:47;;;;;;;14.18;7.05;;;;;;;12.65;56.24;95234.59;4995856;28;20037;-80
2021/09/11 02:30:22;;;;;;;17.60;6.73;;;;;;;12.59;56.11;95231.13;5014100;28;20033;-79
2021/09/11 02:32:47;;;;;;;21.55;7.50;;;;;;;12.60;56.20;95234.53;5015191;28;20041;-79
2021/09/11 02:35:13;;;;;;;19.33;7.57;;;;;;;12.58;56.34;95234.75;5067452;22;20440;-79
2021/09/11 02:37:38;;;;;;;16.23;7.03;;;;;;;12.57;56.48;95241.00;5032732;28;20413;-79
2021/09/11 02:40:07;;;;;;;16.73;7.38;;;;;;;12.55;56.69;95243.06;5033690;28;20029;-79
2021/09/11 02:42:33;;;;;;;22.25;7.43;;;;;;;12.51;57.01;95234.09;5023615;28;20401;-80
2021/09/11 02:44:58;;;;;;;19.08;7.22;;;;;;;12.53;56.61;95242.50;5004563;28;20049;-79
2021/09/11 02:47:33;;;;;;;16.80;6.65;;;;;;;12.45;56.86;95235.03;5026524;28;20025;-79
2021/09/11 02:52:34;;;;;;;20.92;7.07;;;;;;;12.45;56.92;95229.03;5200602;22;20048;-79
2021/09/11 02:54:59;;;;;;;31.83;6.97;;;;;;;12.43;56.72;95225.84;5072603;28;20035;-81
2021/09/11 02:57:34;;;;;;;22.50;7.70;;;;;;;12.40;57.03;95232.34;5082890;28;20036;-79
2021/09/11 03:00:00;;;;;;;19.02;7.18;;;;;;;12.40;56.60;95231.53;5064893;28;20031;-81
2021/09/11 03:02:25;;;;;;;24.33;6.93;;;;;;;12.37;56.80;95232.81;5082661;28;20024;-80
2021/09/11 03:04:50;;;;;;;22.45;8.05;;;;;;;12.29;57.38;95236.56;5082977;28;20053;-80
2021/09/11 03:07:16;;;;;;;12.50;6.93;;;;;;;12.23;57.57;95236.69;5064629;28;20024;-80
2021/09/11 03:09:41;;;;;;;20.90;6.78;;;;;;;12.23;57.56;95253.13;5062550;28;20028;-80
2021/09/11 03:12:07;;;;;;;19.25;6.75;;;;;;;12.18;57.52;95239.19;5083873;28;20040;-79
2021/09/11 03:14:33;;;;;;;17.83;6.43;;;;;;;12.16;57.40;95241.25;5085553;28;20108;-80
2021/09/11 03:16:58;;;;;;;12.55;6.15;;;;;;;12.15;57.79;95244.88;5063930;28;20039;-80
2021/09/11 03:19:24;;;;;;;16.33;6.22;;;;;;;12.13;57.77;95241.69;5066022;28;20510;-80
2021/09/11 03:21:50;;;;;;;16.48;6.28;;;;;;;12.11;57.87;95244.53;5061975;28;20043;-79
2021/09/11 03:24:15;;;;;;;21.10;8.23;;;;;;;12.07;57.97;95250.44;5030682;28;20388;-79
2021/09/11 03:26:47;;;;;;;14.30;6.60;;;;;;;12.06;58.15;95248.88;5081936;28;20032;-79
2021/09/11 03:29:12;;;;;;;9.68;4.05;;;;;;;12.10;56.40;95253.38;5063377;28;20032;-79
2021/09/11 03:31:37;;;;;;;5.32;4.05;;;;;;;12.13;55.32;95247.72;5083934;28;20028;-80
2021/09/11 03:34:03;;;;;;;5.05;4.20;;;;;;;12.22;55.35;95248.94;5047353;28;20028;-80
2021/09/11 03:36:28;;;;;;;5.95;4.75;;;;;;;12.28;55.07;95253.22;5064525;28;20082;-80
2021/09/11 03:38:54;;;;;;;16.25;5.32;;;;;;;12.36;55.94;95248.66;5048946;28;20035;-80
2021/09/11 03:41:19;;;;;;;30.15;5.65;;;;;;;12.36;56.53;95252.06;5064297;28;20111;-80
2021/09/11 03:43:45;;;;;;;13.55;7.20;;;;;;;12.32;56.93;95261.38;5045710;28;20048;-79
2021/09/11 03:46:10;;;;;;;24.67;6.30;;;;;;;12.34;56.80;95254.09;5085114;28;20029;-79
2021/09/11 03:48:36;;;;;;;13.55;6.28;;;;;;;12.32;57.11;95250.94;5068225;28;20561;-80
2021/09/11 03:51:04;;;;;;;10.88;6.20;;;;;;;12.27;57.16;95248.25;5066830;28;20040;-82
2021/09/11 03:53:29;;;;;;;17.33;5.85;;;;;;;12.28;57.18;95255.03;5051071;28;20092;-82
2021/09/11 03:55:54;;;;;;;17.20;6.65;;;;;;;12.23;57.46;95262.78;5069912;28;20039;-81
2021/09/11 03:58:20;;;;;;;20.92;8.00;;;;;;;12.24;56.82;95251.31;5069850;28;20036;-81
2021/09/11 04:00:45;;;;;;;21.35;9.80;;;;;;;12.18;57.20;95244.41;5085728;28;20033;-82
2021/09/11 04:03:11;;;;;;;18.52;10.07;;;;;;;12.21;57.27;95249.19;5089786;22;20573;-82
2021/09/11 04:05:36;;;;;;;22.25;11.32;;;;;;;12.24;56.92;95249.50;5075779;28;20028;-82
2021/09/11 04:08:01;;;;;;;24.55;9.85;;;;;;;12.21;56.76;95259.59;5067227;28;20047;-81
2021/09/11 04:10:27;;;;;;;26.60;10.57;;;;;;;12.24;56.77;95261.75;5050742;28;20039;-81
2021/09/11 04:12:55;;;;;;;37.20;10.10;;;;;;;12.29;56.78;95257.41;5064481;28;20036;-82
2021/09/11 04:15:21;;;;;;;49.38;9.73;;;;;;;12.30;56.72;95260.81;5076703;28;20495;-81
2021/09/11 04:17:46;;;;;;;26.60;8.35;;;;;;;12.35;56.57;95263.50;5066806;28;20031;-82
2021/09/11 04:20:12;;;;;;;27.30;8.55;;;;;;;12.37;56.46;95258.88;5041744;28;20036;-82
2021/09/11 04:22:50;;;;;;;18.52;7.65;;;;;;;12.44;56.46;95264.75;5051101;28;20044;-81
2021/09/11 04:25:21;;;;;;;28.15;9.00;;;;;;;12.46;56.28;95252.25;5075566;28;20043;-81
2021/09/11 04:27:47;;;;;;;32.97;8.93;;;;;;;12.53;56.24;95258.16;5074375;28;20040;-81
2021/09/11 04:30:12;;;;;;;22.40;8.82;;;;;;;12.61;56.19;95260.38;5076854;28;20037;-81
2021/09/11 04:32:38;;;;;;;35.33;8.48;;;;;;;12.68;56.36;95259.44;5076906;28;20475;-82
2021/09/11 04:35:04;;;;;;;23.63;8.55;;;;;;;13.16;55.06;95262.34;5076818;28;20028;-82
2021/09/11 04:37:29;;;;;;;29.98;7.97;;;;;;;14.12;52.73;95259.59;5066382;28;20043;-81
2021/09/11 04:39:55;;;;;;;27.13;7.57;;;;;;;15.32;49.71;95257.75;5048941;28;20461;-81
2021/09/11 04:42:21;;;;;;;40.50;8.73;;;;;;;16.58;46.24;95259.50;5043491;28;20048;-81
2021/09/11 04:44:46;;;;;;;20.23;7.65;;;;;;;17.75;43.10;95261.53;5013154;28;20136;-81
2021/09/11 04:47:11;;;;;;;20.40;8.00;;;;;;;19.06;40.09;95262.88;5030423;28;20037;-81
2021/09/11 04:49:37;;;;;;;30.27;7.88;;;;;;;20.48;37.49;95262.66;5042001;28;20026;-82
2021/09/11 04:52:04;;;;;;;31.55;9.10;;;;;;;21.77;34.53;95250.75;5072908;23;20109;-80
2021/09/11 04:56:57;;;;;;;23.42;8.02;;;;;;;24.02;30.33;95244.91;5150987;23;20045;-81
2021/09/11 04:59:23;;;;;;;26.45;8.70;;;;;;;24.90;28.81;95250.19;5021173;28;20026;-81
2021/09/11 05:01:51;;;;;;;29.23;9.68;;;;;;;26.08;27.59;95248.84;5024308;28;20029;-81
2021/09/11 05:04:17;;;;;;;27.67;8.52;;;;;;;26.61;26.48;95258.22;5016623;28;20072;-80
2021/09/11 05:06:42;;;;;;;34.17;7.90;;;;;;;27.53;25.63;95255.53;5015492;28;20038;-81
2021/09/11 05:09:08;;;;;;;23.75;7.25;;;;;;;28.29;23.64;95252.41;5016851;28;20026;-81
2021/09/11 05:11:33;;;;;;;19.92;6.68;;;;;;;29.15;22.64;95245.09;4981530;28;20124;-81
2021/09/11 05:13:59;;;;;;;18.17;6.45;;;;;;;29.93;21.61;95243.75;5015937;28;20046;-81
2021/09/11 05:16:24;;;;;;;17.98;5.38;;;;;;;30.95;20.12;95250.06;5016292;28;20041;-82
2021/09/11 05:18:50;;;;;;;13.82;4.85;;;;;;;32.05;18.53;95253.38;5017405;28;20038;-82
2021/09/11 05:21:15;;;;;;;8.00;4.93;;;;;;;32.56;18.21;95245.81;5020911;28;20088;-80
2021/09/11 05:23:40;;;;;;;13.85;4.50;;;;;;;33.09;17.48;95248.50;5107041;23;20034;-81
2021/09/11 05:26:06;;;;;;;11.13;5.30;;;;;;;33.20;17.27;95249.41;5033613;28;20042;-81
2021/09/11 05:28:31;;;;;;;14.93;4.97;;;;;;;33.23;17.13;95248.69;5027474;28;20049;-80
2021/09/11 05:30:57;;;;;;;7.85;4.10;;;;;;;33.12;17.38;95253.16;5019560;28;20042;-80
2021/09/11 05:33:23;;;;;;;8.27;3.80;;;;;;;32.91;17.29;95242.09;5028875;28;20032;-82
2021/09/11 05:35:48;;;;;;;13.20;4.18;;;;;;;32.33;17.76;95247.72;5028622;28;20073;-82
2021/09/11 05:38:14;;;;;;;7.40;3.35;;;;;;;31.54;17.97;95254.34;5031060;28;20029;-82
2021/09/11 05:40:39;;;;;;;7.80;3.70;;;;;;;30.77;19.46;95248.91;5047500;28;20034;-82
2021/09/11 05:43:05;;;;;;;14.10;5.30;;;;;;;30.09;19.95;95249.94;5033226;28;20056;-82
2021/09/11 05:45:30;;;;;;;8.25;4.40;;;;;;;29.59;20.47;95250.53;5027303;28;20025;-83
2021/09/11 05:47:56;;;;;;;12.43;4.13;;;;;;;29.32;20.72;95257.44;5030597;28;20091;-78
2021/09/11 05:50:21;;;;;;;9.10;4.32;;;;;;;29.09;21.46;95246.44;5031812;28;20041;-78
2021/09/11 05:52:48;;;;;;;8.05;4.90;;;;;;;28.91;21.75;95242.47;5027514;28;20048;-78
2021/09/11 05:55:15;;;;;;;15.25;5.30;;;;;;;28.73;22.80;95243.81;5025595;28;20076;-79
2021/09/11 05:57:41;;;;;;;17.42;5.43;;;;;;;28.54;22.68;95239.81;5024816;28;20042;-82
2021/09/11 06:00:07;;;;;;;20.50;5.18;;;;;;;27.39;24.24;95244.34;5013844;28;20033;-84
2021/09/11 06:02:33;;;;;;;9.00;4.90;;;;;;;26.11;25.82;95234.88;5046250;28;20429;-83
2021/09/11 06:04:58;;;;;;;12.35;5.00;;;;;;;25.58;26.52;95238.78;5048382;28;20026;-83
2021/09/11 06:07:49;;;;;;;10.70;5.00;;;;;;;24.83;27.33;95242.66;5025879;28;20045;-79
2021/09/11 06:10:14;;;;;;;9.40;4.60;;;;;;;23.62;29.33;95228.94;4948705;28;20712;-79
2021/09/11 06:12:40;;;;;;;13.70;5.38;;;;;;;23.16;30.49;95243.25;4969324;28;20039;-83
2021/09/11 06:15:06;;;;;;;10.57;5.22;;;;;;;22.77;30.78;95252.56;4973980;28;20042;-83
2021/09/11 06:17:32;;;;;;;14.75;5.03;;;;;;;22.84;31.51;95248.75;4973615;28;20027;-79
2021/09/11 06:19:57;;;;;;;15.85;5.38;;;;;;;23.10;31.52;95248.97;4967216;28;20042;-79
2021/09/11 06:22:22;;;;;;;10.52;4.97;;;;;;;23.26;31.52;95243.00;4969682;28;20047;-79
2021/09/11 06:24:48;;;;;;;9.30;5.18;;;;;;;23.43;31.43;95241.56;4955093;28;20042;-80
2021/09/11 06:27:13;;;;;;;25.15;5.55;;;;;;;23.58;31.04;95239.34;4971852;28;20490;-80
2021/09/11 06:29:42;;;;;;;17.08;5.30;;;;;;;23.72;31.18;95233.97;4969767;28;20038;-80
2021/09/11 06:32:07;;;;;;;6.22;5.28;;;;;;;23.82;30.85;95239.03;4968560;28;20042;-81
2021/09/11 06:34:33;;;;;;;16.35;5.47;;;;;;;23.96;31.03;95238.94;4952258;28;20407;-80
2021/09/11 06:36:58;;;;;;;18.92;5.13;;;;;;;24.12;30.38;95236.69;4968266;28;20047;-79
2021/09/11 06:39:49;;;;;;;9.70;5.72;;;;;;;24.39;30.03;95236.47;4969829;28;20035;-80
2021/09/11 06:42:24;;;;;;;12.55;5.15;;;;;;;24.54;29.73;95244.00;4969154;28;20053;-80
2021/09/11 06:45:14;;;;;;;9.80;4.88;;;;;;;24.62;29.26;95249.69;4969981;28;20054;-80
2021/09/11 06:47:49;;;;;;;14.13;5.70;;;;;;;24.64;29.15;95248.28;4970638;28;20051;-80
2021/09/11 06:50:14;;;;;;;12.13;5.13;;;;;;;24.57;28.92;95241.81;4984411;23;20027;-79
2021/09/11 06:52:40;;;;;;;12.05;4.95;;;;;;;24.46;29.15;95239.47;4988067;28;20042;-79
2021/09/11 06:55:05;;;;;;;9.82;5.22;;;;;;;24.50;29.17;95235.09;4969429;28;20026;-80
2021/09/11 06:57:34;;;;;;;13.10;5.18;;;;;;;24.24;29.39;95232.34;4946192;28;20031;-75
2021/09/11 06:59:59;;;;;;;14.40;5.35;;;;;;;24.11;29.51;95235.09;4964524;28;20041;-77
2021/09/11 07:02:25;;;;;;;13.65;4.78;;;;;;;24.15;30.16;95231.53;4964660;28;20035;-77
2021/09/11 07:04:50;;;;;;;11.57;5.20;;;;;;;24.32;29.18;95232.72;5005248;23;20049;-79
2021/09/11 07:07:16;;;;;;;13.57;4.82;;;;;;;24.32;29.63;95232.72;5000665;28;20034;-77
2021/09/11 07:09:41;;;;;;;10.77;5.35;;;;;;;24.40;29.77;95232.72;5000340;28;20033;-78
2021/09/11 07:12:08;;;;;;;8.10;4.82;;;;;;;24.43;29.64;95223.38;4966537;28;20034;-77
2021/09/11 07:14:34;;;;;;;9.88;4.95;;;;;;;24.58;29.25;95222.16;4950863;28;20112;-78
2021/09/11 07:16:59;;;;;;;16.55;5.05;;;;;;;24.61;28.48;95216.22;4990415;28;20125;-77
2021/09/11 07:19:25;;;;;;;12.23;5.07;;;;;;;24.66;29.19;95218.72;5000203;28;20038;-78
2021/09/11 07:21:50;;;;;;;11.25;5.40;;;;;;;24.69;28.69;95216.19;5001206;28;20212;-77
2021/09/11 07:24:15;;;;;;;16.52;5.30;;;;;;;24.81;29.53;95220.91;4987194;28;20038;-77
2021/09/11 07:26:41;;;;;;;14.82;5.80;;;;;;;25.00;28.64;95225.97;4976283;28;20022;-78
2021/09/11 07:29:06;;;;;;;7.82;5.18;;;;;;;25.13;28.33;95220.50;4969667;28;20045;-78
2021/09/11 07:31:32;;;;;;;10.05;5.03;;;;;;;25.14;27.74;95222.06;5002644;28;20030;-77
2021/09/11 07:33:57;;;;;;;14.27;5.35;;;;;;;25.18;28.05;95216.09;4986608;28;20034;-78
2021/09/11 07:36:23;;;;;;;13.38;5.40;;;;;;;25.18;28.14;95210.78;4973805;28;20030;-77
2021/09/11 07:38:49;;;;;;;10.57;5.07;;;;;;;25.23;28.52;95213.28;5003721;28;20030;-79
2021/09/11 07:41:14;;;;;;;5.55;4.80;;;;;;;25.26;29.15;95213.44;5003434;28;20092;-77
2021/09/11 07:43:40;;;;;;;13.80;5.13;;;;;;;25.28;29.13;95213.13;4968853;28;20038;-77
2021/09/11 07:46:05;;;;;;;15.88;5.15;;;;;;;25.32;28.56;95211.38;5002004;28;20037;-78
2021/09/11 07:48:31;;;;;;;14.32;4.75;;;;;;;25.32;27.60;95203.41;5004383;28;20617;-77
2021/09/11 07:50:56;;;;;;;14.68;5.18;;;;;;;25.37;27.88;95200.56;4968173;28;20053;-77
2021/09/11 07:53:22;;;;;;;11.00;4.95;;;;;;;25.35;27.47;95197.44;5000578;28;20069;-78
2021/09/11 07:55:47;;;;;;;18.33;4.68;;;;;;;25.40;27.63;95207.94;5000918;28;20541;-78
2021/09/11 07:58:13;;;;;;;8.07;4.78;;;;;;;25.44;27.72;95206.22;5002711;28;20158;-78
2021/09/11 08:00:38;;;;;;;9.13;4.85;;;;;;;25.46;27.59;95203.22;4985125;28;20034;-78
2021/09/11 08:03:04;;;;;;;8.23;4.82;;;;;;;25.31;27.62;95197.31;4985258;28;20026;-78
2021/09/11 08:05:29;;;;;;;11.13;5.22;;;;;;;25.17;27.64;95193.25;4967421;28;20334;-78
2021/09/11 08:07:54;;;;;;;10.63;5.18;;;;;;;25.09;28.14;95200.94;4985221;28;20101;-78
2021/09/11 08:10:20;;;;;;;17.05;5.55;;;;;;;25.03;27.96;95191.53;5000104;28;20030;-78
2021/09/11 08:12:47;;;;;;;10.50;4.57;;;;;;;25.00;28.36;95186.06;4970009;28;20038;-78
2021/09/11 08:15:12;;;;;;;15.25;5.85;;;;;;;25.03;28.38;95180.88;4969263;28;20156;-78
2021/09/11 08:17:44;;;;;;;12.25;5.60;;;;;;;25.02;29.10;95178.53;4976507;28;20112;-79
2021/09/11 08:20:10;;;;;;;10.45;4.78;;;;;;;25.08;28.25;95175.41;4968887;28;20421;-78
2021/09/11 08:22:36;;;;;;;12.18;5.18;;;;;;;25.07;28.34;95176.50;4985786;28;20164;-80
2021/09/11 08:25:01;;;;;;;12.05;4.80;;;;;;;25.11;28.65;95176.66;4968456;28;20118;-78
2021/09/11 08:27:27;;;;;;;9.45;4.53;;;;;;;25.16;28.01;95173.06;4986017;28;20121;-80
2021/09/11 08:29:52;;;;;;;12.90;5.43;;;;;;;25.17;28.04;95164.75;5003830;28;20038;-78
2021/09/11 08:32:21;;;;;;;13.32;8.25;;;;;;;25.12;28.00;95165.69;4988085;28;20057;-80
2021/09/11 08:34:46;;;;;;;9.50;5.63;;;;;;;25.07;28.30;95165.88;4985710;28;20041;-79
2021/09/11 08:37:12;;;;;;;16.00;5.25;;;;;;;25.09;28.59;95169.00;5002389;28;20069;-78
2021/09/11 08:39:37;;;;;;;12.25;4.45;;;;;;;25.07;27.89;95160.56;5001753;28;20034;-77
2021/09/11 08:42:03;;;;;;;20.98;4.18;;;;;;;25.11;28.46;95171.34;4984423;28;20038;-78
2021/09/11 08:44:29;;;;;;;5.35;4.20;;;;;;;25.15;27.31;95161.63;4968227;28;20562;-78
2021/09/11 08:46:55;;;;;;;10.63;3.92;;;;;;;25.18;26.88;95161.00;5001433;28;20044;-78
2021/09/11 08:49:21;;;;;;;5.88;3.15;;;;;;;25.10;26.68;95162.56;4983788;28;20030;-78
2021/09/11 08:51:46;;;;;;;8.27;3.30;;;;;;;25.00;26.28;95162.09;4967934;28;20041;-77
2021/09/11 08:56:43;;;;;;;14.75;4.20;;;;;;;25.03;26.04;95159.59;4978518;23;20055;-77
2021/09/11 08:59:10;;;;;;;9.02;3.88;;;;;;;25.07;26.49;95155.22;4982160;28;20043;-77
2021/09/11 09:01:35;;;;;;;12.90;3.95;;;;;;;25.13;26.43;95145.19;4981511;28;20033;-77
2021/09/11 09:04:01;;;;;;;18.33;4.30;;;;;;;25.06;25.95;95148.34;4982162;28;20038;-77
2021/09/11 09:06:30;;;;;;;10.23;3.58;;;;;;;25.10;26.41;95143.16;4972475;28;20043;-77
2021/09/11 09:09:04;;;;;;;11.75;3.75;;;;;;;25.16;26.75;95146.44;4965165;28;20245;-78
2021/09/11 09:11:31;;;;;;;7.43;3.42;;;;;;;25.25;30.35;95144.56;4972121;28;20094;-77
2021/09/11 09:14:03;;;;;;;13.38;4.72;;;;;;;25.28;25.74;95138.59;4980848;28;20031;-77
2021/09/11 09:16:32;;;;;;;10.38;3.72;;;;;;;25.20;25.33;95144.69;4971362;28;20039;-77
2021/09/11 09:19:04;;;;;;;7.00;4.03;;;;;;;24.80;25.05;95145.66;4955383;28;20045;-77
2021/09/11 09:21:33;;;;;;;18.92;3.42;;;;;;;24.82;25.05;95140.03;4972755;23;20040;-77
2021/09/11 09:24:03;;;;;;;11.32;3.95;;;;;;;24.88;26.25;95136.09;4961052;28;20054;-78
2021/09/11 09:26:29;;;;;;;13.07;4.85;;;;;;;24.95;25.20;95130.31;4961849;28;20042;-80
2021/09/11 09:29:10;;;;;;;8.70;3.72;;;;;;;24.88;25.42;95136.09;4937335;28;20151;-77
2021/09/11 09:31:36;;;;;;;13.57;3.90;;;;;;;24.88;25.11;95128.13;4952261;28;20039;-78
2021/09/11 09:34:02;;;;;;;12.50;3.63;;;;;;;24.94;24.72;95129.53;4962310;28;20042;-77
2021/09/11 09:36:38;;;;;;;11.05;3.42;;;;;;;24.93;23.82;95116.56;4961468;28;20027;-78
2021/09/11 09:39:08;;;;;;;9.25;3.00;;;;;;;24.93;22.52;95117.34;4962908;28;20529;-77
2021/09/11 09:41:45;;;;;;;11.02;3.33;;;;;;;24.72;22.78;95111.06;4962913;28;20110;-77
2021/09/11 09:44:12;;;;;;;11.77;3.22;;;;;;;24.68;23.19;95112.81;4943009;28;20522;-78
2021/09/11 09:46:39;;;;;;;8.65;3.17;;;;;;;24.58;23.14;95121.88;4928532;28;20573;-77
2021/09/11 09:49:04;;;;;;;8.90;2.55;;;;;;;24.57;23.01;95111.53;4944830;28;20050;-78
2021/09/11 09:51:30;;;;;;;6.55;3.40;;;;;;;24.60;23.10;95106.41;4944144;28;20038;-77
2021/09/11 09:53:55;;;;;;;13.60;3.45;;;;;;;24.62;23.93;95106.09;4928228;28;20050;-78
2021/09/11 09:56:21;;;;;;;5.57;3.30;;;;;;;24.66;24.22;95107.03;4928323;28;20039;-78
2021/09/11 09:58:46;;;;;;;9.52;3.65;;;;;;;24.52;23.71;95105.28;4945628;28;20513;-78
2021/09/11 10:01:11;;;;;;;5.78;2.90;;;;;;;24.46;23.77;95097.78;4927987;28;20039;-77
2021/09/11 10:03:37;;;;;;;18.13;3.72;;;;;;;24.36;23.28;95093.56;4929617;28;20083;-78
2021/09/11 10:06:10;;;;;;;5.47;2.95;;;;;;;24.41;23.44;95090.75;4917099;28;20038;-77
2021/09/11 10:08:42;;;;;;;11.43;2.95;;;;;;;24.41;22.95;95096.09;4933706;28;20039;-77
2021/09/11 10:11:09;;;;;;;5.72;2.67;;;;;;;24.40;22.33;95096.38;4925586;28;20117;-78
2021/09/11 10:13:37;;;;;;;2.65;2.38;;;;;;;24.33;22.22;95093.41;4945759;28;20094;-77
2021/09/11 10:16:08;;;;;;;7.90;2.70;;;;;;;24.22;23.11;95087.56;4963123;28;20043;-78
2021/09/11 10:18:34;;;;;;;11.90;3.05;;;;;;;24.24;23.07;95093.34;4965059;28;20498;-78
2021/09/11 10:21:39;;;;;;;3.45;2.42;;;;;;;24.30;22.86;95089.50;5032131;23;20054;-77
2021/09/11 10:24:14;;;;;;;9.45;3.67;;;;;;;24.36;23.13;95090.13;4962244;28;20108;-78
2021/09/11 10:27:19;;;;;;;9.70;2.80;;;;;;;24.28;24.17;95083.69;4962597;28;20042;-78
2021/09/11 10:29:55;;;;;;;7.03;2.95;;;;;;;24.11;24.60;95075.69;4906396;28;20146;-78
2021/09/11 10:32:24;;;;;;;8.68;2.28;;;;;;;23.99;23.71;95086.13;4961827;28;20042;-78
2021/09/11 10:34:56;;;;;;;6.10;2.60;;;;;;;23.95;24.31;95078.78;4966156;28;20066;-78
2021/09/11 10:37:38;;;;;;;3.70;2.78;;;;;;;23.96;23.46;95087.53;4966845;28;20498;-78
2021/09/11 10:40:28;;;;;;;8.27;2.60;;;;;;;24.05;23.57;95076.91;4947515;28;20059;-78
2021/09/11 10:43:10;;;;;;;11.32;3.03;;;;;;;24.15;23.27;95082.72;4960717;28;20050;-77
2021/09/11 10:46:04;;;;;;;14.80;2.55;;;;;;;24.22;23.46;95071.63;4961866;28;20038;-77
2021/09/11 10:48:30;;;;;;;5.43;2.50;;;;;;;24.26;23.35;95072.59;4961429;28;20058;-77
2021/09/11 10:50:55;;;;;;;15.48;2.75;;;;;;;24.23;22.95;95068.66;4942378;28;20031;-77
2021/09/11 10:53:22;;;;;;;6.75;2.65;;;;;;;24.19;23.58;95061.63;4943228;28;20042;-77
2021/09/11 10:55:50;;;;;;;6.90;2.97;;;;;;;24.30;23.41;95062.13;4927169;28;20447;-77
2021/09/11 10:58:25;;;;;;;9.43;3.10;;;;;;;24.09;22.80;95059.28;4961631;28;20038;-78
2021/09/11 11:00:59;;;;;;;11.30;2.65;;;;;;;23.88;22.96;95057.19;4962331;28;20122;-78
2021/09/11 11:03:25;;;;;;;3.00;2.72;;;;;;;23.81;23.08;95050.78;4944691;28;20086;-77
2021/09/11 11:06:04;;;;;;;6.88;2.38;;;;;;;23.89;23.10;95058.75;4943988;28;20035;-77
2021/09/11 11:08:31;;;;;;;10.77;2.30;;;;;;;24.01;22.84;95044.09;4961671;28;20504;-77
2021/09/11 11:10:57;;;;;;;5.57;2.72;;;;;;;24.04;21.73;95030.19;4962501;28;20046;-77
2021/09/11 11:13:23;;;;;;;18.23;2.97;;;;;;;24.11;22.80;95033.19;4960958;28;20557;-77
2021/09/11 11:15:55;;;;;;;9.48;2.50;;;;;;;24.17;22.02;95029.28;4959077;28;20038;-77
2021/09/11 11:18:20;;;;;;;;;;;;;;;24.20;21.68;95025.97;4960646;28;20041;-77
2021/09/11 11:20:46;;;;;;;3.65;2.00;;;;;;;24.12;21.42;95024.91;4961450;28;19914;-78
2021/09/11 11:23:11;;;;;;;3.58;2.80;;;;;;;24.14;21.75;95020.06;4943170;28;20031;-77
2021/09/11 11:25:39;;;;;;;3.80;2.25;;;;;;;24.21;20.40;95016.91;4943314;28;20049;-78
2021/09/11 11:28:08;;;;;;;4.45;1.95;;;;;;;24.23;19.08;95015.50;4944603;28;20038;-77
2021/09/11 11:30:38;;;;;;;4.35;2.20;;;;;;;24.27;19.18;95005.06;4927563;28;20046;-77
2021/09/11 11:33:06;;;;;;;13.98;2.75;;;;;;;24.28;18.33;94995.19;4960836;28;20047;-77
2021/09/11 11:35:32;;;;;;;7.15;2.10;;;;;;;23.91;17.93;94998.13;4965554;28;20566;-77
2021/09/11 11:37:58;;;;;;;4.82;1.80;;;;;;;23.81;16.65;94995.81;4967010;28;20031;-78
2021/09/11 11:40:26;;;;;;;5.55;1.90;;;;;;;23.88;17.27;94998.75;4968014;28;20072;-80